createdAt,value
2019-03-21T00:02:27.001Z,56.70
2019-03-21T00:05:19.622Z,56.50
2019-03-21T00:08:12.947Z,57.20
2019-03-21T00:11:21.967Z,56.50
2019-03-21T00:14:35.209Z,56.50
2019-03-21T00:17:32.205Z,56.50
2019-03-21T00:20:24.648Z,56.50
2019-03-21T00:23:17.399Z,56.50
2019-03-21T00:26:10.141Z,56.50
2019-03-21T00:29:02.563Z,56.60
2019-03-21T00:31:55.356Z,56.50
2019-03-21T00:34:48.231Z,56.60
2019-03-21T00:37:42.132Z,56.60
2019-03-21T00:40:36.522Z,56.50
2019-03-21T00:43:29.388Z,56.50
2019-03-21T00:46:22.202Z,56.50
2019-03-21T00:49:14.984Z,56.70
2019-03-21T00:52:08.146Z,56.70
2019-03-21T00:55:01.106Z,56.80
2019-03-21T00:57:58.461Z,56.60
2019-03-21T01:00:51.619Z,56.60
2019-03-21T01:03:45.414Z,56.60
2019-03-21T01:06:39.938Z,56.60
2019-03-21T01:09:32.926Z,56.60
2019-03-21T01:12:25.820Z,56.60
2019-03-21T01:15:18.642Z,56.60
2019-03-21T01:18:11.694Z,56.60
2019-03-21T01:21:04.052Z,56.60
2019-03-21T01:23:57.006Z,56.70
2019-03-21T01:26:49.423Z,56.80
2019-03-21T01:29:42.025Z,57.00
2019-03-21T01:32:35.055Z,56.60
2019-03-21T01:35:27.707Z,56.60
2019-03-21T01:38:21.458Z,56.60
2019-03-21T01:41:13.885Z,56.60
2019-03-21T01:44:06.749Z,56.70
2019-03-21T01:46:59.974Z,56.70
2019-03-21T01:49:53.670Z,56.80
2019-03-21T01:52:46.753Z,56.70
2019-03-21T01:55:40.807Z,56.70
2019-03-21T01:58:33.972Z,56.70
2019-03-21T02:01:26.627Z,56.50
2019-03-21T02:04:19.316Z,56.60
2019-03-21T02:07:14.299Z,56.80
2019-03-21T02:10:07.395Z,56.70
2019-03-21T02:13:01.733Z,56.80
2019-03-21T02:15:54.383Z,56.80
2019-03-21T02:18:47.216Z,56.70
2019-03-21T02:21:40.665Z,56.70
2019-03-21T02:24:33.735Z,56.80
2019-03-21T02:27:27.170Z,56.80
2019-03-21T02:30:21.426Z,56.90
2019-03-21T02:33:17.326Z,56.60
2019-03-21T02:36:10.826Z,56.60
2019-03-21T02:39:03.724Z,56.80
2019-03-21T02:41:57.989Z,56.60
2019-03-21T02:44:50.903Z,56.80
2019-03-21T02:47:44.085Z,56.80
2019-03-21T02:50:37.031Z,56.70
2019-03-21T02:53:30.005Z,56.70
2019-03-21T02:56:22.862Z,56.70
2019-03-21T02:59:16.026Z,56.70
2019-03-21T03:02:09.085Z,56.70
2019-03-21T03:05:02.688Z,56.80
2019-03-21T03:07:55.637Z,56.80
2019-03-21T03:10:49.872Z,57.40
2019-03-21T03:13:42.668Z,56.80
2019-03-21T03:16:36.720Z,56.80
2019-03-21T03:19:29.702Z,56.90
2019-03-21T03:22:22.567Z,56.70
2019-03-21T03:25:15.206Z,56.80
2019-03-21T03:28:09.415Z,56.70
2019-03-21T03:31:01.926Z,56.70
2019-03-21T03:33:54.664Z,56.90
2019-03-21T03:36:47.446Z,56.60
2019-03-21T03:39:40.767Z,56.70
2019-03-21T03:42:33.847Z,56.70
2019-03-21T03:45:37.397Z,56.60
2019-03-21T03:48:22.745Z,56.80
2019-03-21T03:51:15.354Z,56.90
2019-03-21T03:54:07.815Z,56.90
2019-03-21T03:57:00.835Z,56.70
2019-03-21T03:59:55.311Z,56.70
2019-03-21T04:02:48.785Z,56.80
2019-03-21T04:05:41.907Z,56.80
2019-03-21T04:08:35.335Z,56.80
2019-03-21T04:11:29.210Z,56.60
2019-03-21T04:14:21.850Z,56.70
2019-03-21T04:17:14.775Z,56.70
2019-03-21T04:20:07.629Z,56.70
2019-03-21T04:23:01.615Z,56.50
2019-03-21T04:25:55.808Z,56.90
2019-03-21T04:28:48.876Z,56.60
2019-03-21T04:31:41.588Z,56.60
2019-03-21T04:34:34.674Z,56.70
2019-03-21T04:37:26.916Z,56.70
2019-03-21T04:40:19.980Z,56.60
2019-03-21T04:43:12.630Z,56.50
2019-03-21T04:46:06.530Z,56.50
2019-03-21T04:48:59.305Z,56.50
2019-03-21T04:51:54.342Z,56.70
2019-03-21T04:54:47.203Z,56.50
2019-03-21T04:57:40.175Z,56.50
2019-03-21T05:00:34.691Z,56.40
2019-03-21T05:03:29.164Z,56.50
2019-03-21T05:06:22.906Z,56.40
2019-03-21T05:09:18.162Z,56.40
2019-03-21T05:12:10.777Z,56.40
2019-03-21T05:15:03.531Z,56.30
2019-03-21T05:17:58.273Z,56.40
2019-03-21T05:20:51.195Z,56.50
2019-03-21T05:23:45.339Z,56.30
2019-03-21T05:26:38.926Z,56.40
2019-03-21T05:29:31.938Z,56.30
2019-03-21T05:32:24.943Z,56.40
2019-03-21T05:35:19.453Z,56.40
2019-03-21T05:38:12.641Z,56.30
2019-03-21T05:41:06.896Z,56.20
2019-03-21T05:44:01.591Z,56.20
2019-03-21T05:46:54.497Z,56.40
2019-03-21T05:49:47.059Z,56.50
2019-03-21T05:52:40.417Z,56.30
2019-03-21T05:55:33.577Z,56.50
2019-03-21T05:58:26.966Z,56.40
2019-03-21T06:01:20.265Z,56.40
2019-03-21T06:04:12.982Z,56.50
2019-03-21T06:07:42.153Z,56.60
2019-03-21T06:10:34.597Z,56.50
2019-03-21T06:13:27.376Z,56.50
2019-03-21T06:16:20.323Z,56.50
2019-03-21T06:19:33.172Z,57.50
2019-03-21T06:22:53.895Z,56.60
2019-03-21T06:25:54.154Z,56.70
2019-03-21T06:28:46.690Z,56.60
2019-03-21T06:31:39.580Z,56.70
2019-03-21T06:34:32.060Z,56.50
2019-03-21T06:37:24.873Z,56.80
2019-03-21T06:40:17.630Z,57.00
2019-03-21T06:43:10.215Z,56.90
2019-03-21T06:46:03.086Z,57.00
2019-03-21T06:48:56.963Z,57.00
2019-03-21T06:51:49.991Z,57.00
2019-03-21T06:54:43.311Z,57.00
2019-03-21T06:57:36.202Z,57.10
2019-03-21T07:00:28.983Z,57.10
2019-03-21T07:03:23.530Z,57.00
2019-03-21T07:06:17.473Z,57.10
2019-03-21T07:09:11.903Z,57.20
2019-03-21T07:12:05.532Z,57.20
2019-03-21T07:14:58.338Z,57.30
2019-03-21T07:17:51.936Z,57.30
2019-03-21T07:20:44.931Z,57.30
2019-03-21T07:23:37.626Z,57.20
2019-03-21T07:26:30.281Z,57.30
2019-03-21T07:29:23.245Z,57.30
2019-03-21T07:32:16.377Z,57.40
2019-03-21T07:35:10.128Z,57.40
2019-03-21T07:38:03.024Z,57.30
2019-03-21T07:40:57.063Z,57.30
2019-03-21T07:43:52.290Z,57.30
2019-03-21T07:46:46.377Z,57.50
2019-03-21T07:49:38.931Z,57.40
2019-03-21T07:52:32.183Z,57.50
2019-03-21T07:55:26.686Z,57.50
2019-03-21T07:58:20.683Z,57.40
2019-03-21T08:01:13.276Z,57.30
2019-03-21T08:04:07.627Z,57.30
2019-03-21T08:07:02.028Z,57.40
2019-03-21T08:09:54.821Z,57.50
2019-03-21T08:12:47.867Z,57.40
2019-03-21T08:15:40.326Z,57.30
2019-03-21T08:18:32.960Z,57.30
2019-03-21T08:21:27.320Z,57.30
2019-03-21T08:24:20.334Z,57.40
2019-03-21T08:27:13.160Z,57.40
2019-03-21T08:30:06.762Z,57.40
2019-03-21T08:32:59.503Z,57.20
2019-03-21T08:35:52.156Z,57.20
2019-03-21T08:38:45.461Z,57.20
2019-03-21T08:41:38.989Z,57.20
2019-03-21T08:44:31.762Z,57.20
2019-03-21T08:47:24.816Z,57.20
2019-03-21T08:50:17.959Z,57.10
2019-03-21T08:53:10.698Z,57.00
2019-03-21T08:56:03.307Z,57.00
2019-03-21T08:58:56.209Z,57.00
2019-03-21T09:01:50.997Z,57.10
2019-03-21T09:04:43.626Z,57.00
2019-03-21T09:07:36.295Z,57.10
2019-03-21T09:10:30.055Z,57.10
2019-03-21T09:13:22.794Z,57.00
2019-03-21T09:16:16.434Z,57.10
2019-03-21T09:19:09.008Z,57.00
2019-03-21T09:22:02.164Z,57.00
2019-03-21T09:24:55.086Z,56.90
2019-03-21T09:27:49.307Z,56.90
2019-03-21T09:30:42.173Z,56.80
2019-03-21T09:33:35.233Z,56.70
2019-03-21T09:36:29.092Z,56.80
2019-03-21T09:39:23.673Z,56.80
2019-03-21T09:42:16.708Z,56.80
2019-03-21T09:45:09.952Z,56.80
2019-03-21T09:48:02.547Z,56.60
2019-03-21T09:50:56.921Z,56.50
2019-03-21T09:53:49.862Z,56.50
2019-03-21T09:56:43.849Z,56.50
2019-03-21T09:59:36.303Z,56.50
2019-03-21T10:02:28.814Z,56.50
2019-03-21T10:05:22.638Z,56.50
2019-03-21T10:08:15.664Z,56.40
2019-03-21T10:11:08.129Z,56.40
2019-03-21T10:14:01.184Z,56.30
2019-03-21T10:16:53.648Z,56.40
2019-03-21T10:19:48.379Z,56.40
2019-03-21T10:22:40.963Z,56.50
2019-03-21T10:25:33.681Z,56.40
2019-03-21T10:28:26.816Z,56.30
2019-03-21T10:31:20.172Z,56.30
2019-03-21T10:34:13.098Z,56.30
2019-03-21T10:37:06.337Z,56.40
2019-03-21T10:39:59.790Z,56.30
2019-03-21T10:42:53.143Z,56.20
2019-03-21T10:45:47.190Z,56.20
2019-03-21T10:48:40.624Z,56.10
2019-03-21T10:51:33.276Z,56.30
2019-03-21T10:54:27.346Z,56.10
2019-03-21T10:57:20.175Z,56.10
2019-03-21T11:00:13.643Z,56.00
2019-03-21T11:03:06.255Z,56.10
2019-03-21T11:05:58.952Z,56.00
2019-03-21T11:08:51.492Z,55.90
2019-03-21T11:11:44.400Z,56.00
2019-03-21T11:14:37.027Z,56.10
2019-03-21T11:17:29.825Z,55.90
2019-03-21T11:20:32.732Z,56.00
2019-03-21T11:23:25.527Z,55.80
2019-03-21T11:26:18.418Z,55.80
2019-03-21T11:29:11.492Z,56.00
2019-03-21T11:32:04.127Z,56.00
2019-03-21T11:34:57.276Z,56.10
2019-03-21T11:37:49.915Z,56.00
2019-03-21T11:40:42.696Z,56.00
2019-03-21T11:43:35.738Z,56.00
2019-03-21T11:46:28.194Z,56.10
2019-03-21T11:49:20.536Z,56.10
2019-03-21T11:52:18.212Z,56.10
2019-03-21T11:55:08.334Z,56.10
2019-03-21T11:58:01.827Z,56.10
2019-03-21T12:00:54.273Z,56.10
2019-03-21T12:03:47.028Z,56.10
2019-03-21T12:06:39.911Z,56.10
2019-03-21T12:09:34.245Z,56.20
2019-03-21T12:12:27.455Z,56.20
2019-03-21T12:15:20.639Z,56.30
2019-03-21T12:18:14.563Z,56.20
2019-03-21T12:21:07.958Z,56.20
2019-03-21T12:24:00.715Z,56.00
2019-03-21T12:26:54.358Z,56.00
2019-03-21T12:29:47.511Z,56.00
2019-03-21T12:32:41.072Z,56.10
2019-03-21T12:35:34.025Z,56.00
2019-03-21T12:38:28.171Z,56.00
2019-03-21T12:41:22.070Z,56.00
2019-03-21T12:44:14.649Z,56.10
2019-03-21T12:47:07.058Z,56.00
2019-03-21T12:49:59.545Z,56.00
2019-03-21T12:52:52.488Z,55.90
2019-03-21T12:55:46.531Z,56.00
2019-03-21T12:58:39.522Z,56.00
2019-03-21T13:01:32.142Z,56.00
2019-03-21T13:04:25.039Z,55.90
2019-03-21T13:07:18.315Z,56.00
2019-03-21T13:10:11.315Z,56.00
2019-03-21T13:13:03.582Z,56.00
2019-03-21T13:15:56.710Z,56.00
2019-03-21T13:18:49.450Z,56.00
2019-03-21T13:21:42.103Z,56.00
2019-03-21T13:24:35.142Z,56.00
2019-03-21T13:27:27.981Z,56.00
2019-03-21T13:30:21.084Z,56.00
2019-03-21T13:33:13.912Z,56.00
2019-03-21T13:36:06.521Z,56.00
2019-03-21T13:38:59.231Z,56.20
2019-03-21T13:41:51.646Z,56.00
2019-03-21T13:44:44.402Z,56.00
2019-03-21T13:47:37.162Z,56.00
2019-03-21T13:50:30.005Z,56.00
2019-03-21T13:53:22.539Z,56.00
2019-03-21T13:56:17.027Z,56.00
2019-03-21T13:59:11.323Z,56.00
2019-03-21T14:02:04.371Z,56.00
2019-03-21T14:04:57.155Z,56.00
2019-03-21T14:07:50.131Z,56.00
2019-03-21T14:10:43.034Z,56.10
2019-03-21T14:13:36.170Z,56.10
2019-03-21T14:16:28.751Z,56.10
2019-03-21T14:19:21.457Z,56.10
2019-03-21T14:22:15.465Z,56.10
2019-03-21T14:25:08.151Z,56.20
2019-03-21T14:28:01.077Z,56.20
2019-03-21T14:30:55.910Z,56.20
2019-03-21T14:33:48.314Z,56.30
2019-03-21T14:36:41.443Z,56.30
2019-03-21T14:39:34.392Z,56.30
2019-03-21T14:42:27.078Z,56.30
2019-03-21T14:45:19.601Z,56.40
2019-03-21T14:48:14.209Z,56.40
2019-03-21T14:51:07.208Z,56.50
2019-03-21T14:53:59.976Z,56.50
2019-03-21T14:56:52.430Z,56.50
2019-03-21T14:59:45.071Z,56.60
2019-03-21T15:02:37.318Z,56.60
2019-03-21T15:05:29.695Z,56.50
2019-03-21T15:08:22.002Z,56.60
2019-03-21T15:11:17.280Z,56.70
2019-03-21T15:14:10.220Z,56.70
2019-03-21T15:17:04.354Z,56.70
2019-03-21T15:19:57.351Z,56.60
2019-03-21T15:22:49.813Z,56.70
2019-03-21T15:25:43.307Z,56.70
2019-03-21T15:28:36.481Z,56.70
2019-03-21T15:31:29.423Z,56.70
2019-03-21T15:34:22.108Z,56.80
2019-03-21T15:37:14.712Z,56.80
2019-03-21T15:40:08.276Z,56.70
2019-03-21T15:43:01.243Z,56.80
2019-03-21T15:45:53.965Z,56.70
2019-03-21T15:48:46.794Z,56.90
2019-03-21T15:51:39.600Z,56.90
2019-03-21T15:54:32.336Z,56.90
2019-03-21T15:57:24.970Z,57.00
2019-03-21T16:00:20.880Z,56.90
2019-03-21T16:03:13.470Z,56.90
2019-03-21T16:06:05.785Z,57.00
2019-03-21T16:08:58.319Z,57.00
2019-03-21T16:11:51.088Z,57.10
2019-03-21T16:14:43.824Z,57.20
2019-03-21T16:17:36.170Z,57.10
2019-03-21T16:20:29.297Z,57.30
2019-03-21T16:23:22.262Z,57.20
2019-03-21T16:26:16.165Z,57.20
2019-03-21T16:29:10.251Z,57.30
2019-03-21T16:32:05.356Z,57.40
2019-03-21T16:34:57.647Z,57.40
2019-03-21T16:37:50.186Z,57.40
2019-03-21T16:40:43.399Z,57.40
2019-03-21T16:43:36.340Z,57.40
2019-03-21T16:46:29.183Z,57.50
2019-03-21T16:49:21.522Z,57.50
2019-03-21T16:52:14.343Z,57.50
2019-03-21T16:55:07.294Z,57.50
2019-03-21T16:58:01.227Z,57.50
2019-03-21T17:00:54.359Z,57.60
2019-03-21T17:03:47.448Z,57.60
2019-03-21T17:06:40.924Z,57.60
2019-03-21T17:09:33.938Z,57.70
2019-03-21T17:12:26.847Z,58.40
2019-03-21T17:15:19.665Z,57.70
2019-03-21T17:18:13.653Z,57.70
2019-03-21T17:21:09.414Z,57.70
2019-03-21T17:24:02.024Z,57.70
2019-03-21T17:26:54.942Z,57.90
2019-03-21T17:29:49.410Z,57.90
2019-03-21T17:32:42.719Z,57.80
2019-03-21T17:35:35.235Z,57.80
2019-03-21T17:38:27.957Z,57.70
2019-03-21T17:41:20.525Z,57.70
2019-03-21T17:44:13.179Z,57.70
2019-03-21T17:47:06.408Z,57.80
2019-03-21T17:50:04.226Z,57.70
2019-03-21T17:52:56.845Z,57.80
2019-03-21T17:55:50.202Z,57.90
2019-03-21T17:58:42.977Z,57.90
2019-03-21T18:01:36.018Z,57.80
2019-03-21T18:04:29.357Z,57.70
2019-03-21T18:07:22.020Z,57.70
2019-03-21T18:10:32.807Z,57.70
2019-03-21T18:13:25.713Z,57.70
2019-03-21T18:16:18.736Z,57.70
2019-03-21T18:19:11.355Z,57.70
2019-03-21T18:22:04.200Z,57.70
2019-03-21T18:24:57.662Z,57.80
2019-03-21T18:27:50.302Z,57.70
2019-03-21T18:30:43.453Z,57.70
2019-03-21T18:33:35.934Z,57.70
2019-03-21T18:36:28.999Z,57.70
2019-03-21T18:39:21.681Z,57.70
2019-03-21T18:42:14.493Z,57.70
2019-03-21T18:45:09.497Z,57.70
2019-03-21T18:48:01.985Z,57.70
2019-03-21T18:50:54.837Z,57.70
2019-03-21T18:53:47.846Z,57.70
2019-03-21T18:56:40.606Z,57.70
2019-03-21T18:59:33.769Z,57.60
2019-03-21T19:02:26.191Z,57.60
2019-03-21T19:05:18.612Z,57.70
2019-03-21T19:08:11.762Z,57.70
2019-03-21T19:11:04.750Z,57.70
2019-03-21T19:13:57.463Z,57.70
2019-03-21T19:16:50.134Z,57.70
2019-03-21T19:19:43.531Z,57.70
2019-03-21T19:22:37.058Z,57.70
2019-03-21T19:25:30.075Z,57.70
2019-03-21T19:28:22.825Z,57.70
2019-03-21T19:31:15.498Z,57.80
2019-03-21T19:34:08.219Z,57.90
2019-03-21T19:37:01.349Z,57.80
2019-03-21T19:39:53.986Z,57.70
2019-03-21T19:42:47.349Z,57.60
2019-03-21T19:45:40.113Z,57.60
2019-03-21T19:48:33.060Z,57.60
2019-03-21T19:51:25.674Z,57.60
2019-03-21T19:54:19.059Z,57.60
2019-03-21T19:57:12.206Z,57.60
2019-03-21T20:00:05.699Z,57.70
2019-03-21T20:02:58.778Z,57.90
2019-03-21T20:05:59.961Z,57.90
2019-03-21T20:08:47.116Z,57.70
2019-03-21T20:11:41.350Z,57.70
2019-03-21T20:14:34.239Z,57.80
2019-03-21T20:17:27.108Z,57.90
2019-03-21T20:20:20.074Z,57.70
2019-03-21T20:23:12.641Z,57.80
2019-03-21T20:26:05.716Z,57.70
2019-03-21T20:28:58.273Z,57.90
2019-03-21T20:31:51.168Z,57.90
2019-03-21T20:34:44.083Z,57.80
2019-03-21T20:37:38.176Z,58.40
2019-03-21T20:40:30.569Z,57.70
2019-03-21T20:43:23.344Z,57.70
2019-03-21T20:46:16.039Z,57.80
2019-03-21T20:49:08.632Z,57.90
2019-03-21T20:52:01.493Z,57.90
2019-03-21T20:54:54.046Z,58.00
2019-03-21T20:57:46.536Z,58.10
2019-03-21T21:00:39.539Z,58.20
2019-03-21T21:03:32.286Z,58.10
2019-03-21T21:06:24.807Z,58.10
2019-03-21T21:09:17.706Z,58.10
2019-03-21T21:12:11.158Z,58.20
2019-03-21T21:15:04.148Z,58.20
2019-03-21T21:17:57.105Z,58.10
2019-03-21T21:20:49.691Z,58.30
2019-03-21T21:23:41.924Z,58.40
2019-03-21T21:26:34.799Z,58.30
2019-03-21T21:29:27.592Z,58.40
2019-03-21T21:32:20.249Z,58.50
2019-03-21T21:35:13.102Z,58.50
2019-03-21T21:38:05.670Z,58.40
2019-03-21T21:40:58.898Z,58.90
2019-03-21T21:43:51.512Z,58.30
2019-03-21T21:46:44.586Z,58.30
2019-03-21T21:49:37.639Z,58.20
2019-03-21T21:52:41.551Z,58.90
2019-03-21T21:55:24.423Z,58.20
2019-03-21T21:58:17.144Z,58.10
2019-03-21T22:01:09.492Z,58.20
2019-03-21T22:04:04.839Z,58.20
2019-03-21T22:06:55.727Z,58.20
2019-03-21T22:09:48.783Z,58.10
2019-03-21T22:12:41.448Z,58.10
2019-03-21T22:15:34.235Z,58.00
2019-03-21T22:18:26.811Z,58.20
2019-03-21T22:21:19.969Z,58.20
2019-03-21T22:24:12.979Z,58.20
2019-03-21T22:27:05.651Z,58.10
2019-03-21T22:29:58.438Z,58.00
2019-03-21T22:32:51.491Z,58.10
2019-03-21T22:35:44.149Z,58.20
2019-03-21T22:38:37.340Z,58.20
2019-03-21T22:41:29.626Z,58.20
2019-03-21T22:44:21.873Z,58.20
2019-03-21T22:47:14.333Z,58.20
2019-03-21T22:50:07.901Z,58.20
2019-03-21T22:53:00.827Z,58.10
2019-03-21T22:55:53.773Z,58.20
2019-03-21T22:58:46.412Z,58.20
2019-03-21T23:01:39.450Z,58.20
2019-03-21T23:04:32.059Z,58.20
2019-03-21T23:07:24.567Z,58.20
2019-03-21T23:10:17.555Z,58.20
2019-03-21T23:13:09.890Z,58.20
2019-03-21T23:16:02.540Z,58.20
2019-03-21T23:18:54.997Z,58.10
2019-03-21T23:21:47.582Z,58.00
2019-03-21T23:24:41.520Z,58.10
2019-03-21T23:27:33.645Z,58.20
2019-03-21T23:30:26.341Z,58.00
2019-03-21T23:33:20.355Z,58.00
2019-03-21T23:36:13.035Z,58.00
2019-03-21T23:39:06.027Z,58.10
2019-03-21T23:41:58.971Z,58.10
2019-03-21T23:44:51.874Z,58.10
2019-03-21T23:47:45.417Z,58.10
2019-03-21T23:50:38.020Z,58.00
2019-03-21T23:53:31.677Z,57.80
2019-03-21T23:56:24.643Z,58.00
2019-03-21T23:59:17.208Z,58.20
